createdAt,value
2019-05-07T00:01:33.923Z,102025.42
2019-05-07T00:04:03.853Z,102027.94
2019-05-07T00:06:34.267Z,102028.27
2019-05-07T00:09:06.242Z,102029.52
2019-05-07T00:11:36.565Z,102025.46
2019-05-07T00:14:07.387Z,102019.25
2019-05-07T00:16:38.900Z,102021.34
2019-05-07T00:19:09.498Z,102015.53
2019-05-07T00:21:42.099Z,102015.89
2019-05-07T00:24:13.266Z,102020.50
2019-05-07T00:26:43.673Z,102015.59
2019-05-07T00:29:14.210Z,102016.33
2019-05-07T00:31:44.650Z,102013.11
2019-05-07T00:34:16.605Z,102013.91
2019-05-07T00:37:07.577Z,102008.50
2019-05-07T00:39:45.008Z,102007.14
2019-05-07T00:42:26.753Z,102013.55
2019-05-07T00:45:15.921Z,102012.91
2019-05-07T00:47:32.981Z,102011.61
2019-05-07T00:50:08.529Z,102009.84
2019-05-07T00:52:38.971Z,102009.43
2019-05-07T00:55:09.491Z,102013.18
2019-05-07T00:57:39.868Z,102013.09
2019-05-07T01:00:13.062Z,102004.35
2019-05-07T01:02:43.537Z,102005.18
2019-05-07T01:05:14.036Z,102003.80
2019-05-07T01:07:44.502Z,102001.62
2019-05-07T01:10:15.528Z,102002.74
2019-05-07T01:12:46.068Z,102010.52
2019-05-07T01:15:27.867Z,102007.88
2019-05-07T01:17:48.944Z,102000.89
2019-05-07T01:20:19.343Z,102002.38
2019-05-07T01:22:50.054Z,102008.77
2019-05-07T01:25:26.931Z,102010.34
2019-05-07T01:27:57.345Z,102006.78
2019-05-07T01:30:27.756Z,102005.72
2019-05-07T01:33:12.255Z,102008.17
2019-05-07T01:36:13.434Z,102010.12
2019-05-07T01:38:44.015Z,102006.97
2019-05-07T01:41:14.295Z,102012.89
2019-05-07T01:43:44.642Z,102011.59
2019-05-07T01:46:15.049Z,102009.80
2019-05-07T01:48:45.283Z,102012.56
2019-05-07T01:51:16.018Z,102018.16
2019-05-07T01:53:46.395Z,102015.48
2019-05-07T01:56:16.783Z,102017.09
2019-05-07T01:58:47.247Z,102013.54
2019-05-07T02:01:17.631Z,102020.34
2019-05-07T02:04:19.010Z,102019.77
2019-05-07T02:07:20.264Z,102015.52
2019-05-07T02:10:09.508Z,102018.42
2019-05-07T02:12:42.419Z,102015.84
2019-05-07T02:15:12.687Z,102021.81
2019-05-07T02:17:43.149Z,102019.72
2019-05-07T02:20:13.573Z,102020.19
2019-05-07T02:22:44.062Z,102024.08
2019-05-07T02:25:14.497Z,102020.19
2019-05-07T02:27:45.756Z,102021.39
2019-05-07T02:30:16.573Z,102022.63
2019-05-07T02:32:46.798Z,102017.45
2019-05-07T02:35:17.296Z,102021.72
2019-05-07T02:37:56.606Z,102021.66
2019-05-07T02:40:36.882Z,102017.69
2019-05-07T02:43:07.525Z,102022.22
2019-05-07T02:45:46.620Z,102022.63
2019-05-07T02:48:23.493Z,102017.86
2019-05-07T02:50:57.836Z,102015.09
2019-05-07T02:53:37.600Z,102019.06
2019-05-07T02:56:08.057Z,102021.98
2019-05-07T02:58:38.343Z,102013.23
2019-05-07T03:01:08.628Z,102014.95
2019-05-07T03:03:39.051Z,102010.59
2019-05-07T03:06:09.375Z,102006.62
2019-05-07T03:08:39.944Z,102008.23
2019-05-07T03:11:13.726Z,102013.73
2019-05-07T03:13:43.258Z,102009.61
2019-05-07T03:16:14.016Z,102007.19
2019-05-07T03:18:44.427Z,102010.83
2019-05-07T03:21:16.974Z,102005.00
2019-05-07T03:24:03.500Z,102003.23
2019-05-07T03:26:39.689Z,102009.46
2019-05-07T03:29:14.857Z,102003.07
2019-05-07T03:31:56.598Z,101999.33
2019-05-07T03:34:47.293Z,101998.70
2019-05-07T03:37:23.227Z,101997.62
2019-05-07T03:39:53.795Z,101997.85
2019-05-07T03:42:24.324Z,102003.34
2019-05-07T03:45:13.826Z,102001.58
2019-05-07T03:47:46.577Z,102004.98
2019-05-07T03:50:17.058Z,102004.80
2019-05-07T03:52:47.438Z,101998.65
2019-05-07T03:55:18.033Z,101993.33
2019-05-07T03:57:48.339Z,101991.62
2019-05-07T04:00:19.101Z,101995.50
2019-05-07T04:02:49.163Z,101993.33
2019-05-07T04:05:19.294Z,101988.06
2019-05-07T04:07:49.467Z,101984.91
2019-05-07T04:10:22.939Z,101987.49
2019-05-07T04:12:53.389Z,101987.49
2019-05-07T04:15:23.812Z,101986.70
2019-05-07T04:17:54.052Z,101984.27
2019-05-07T04:20:24.270Z,101984.42
2019-05-07T04:22:54.552Z,101988.97
2019-05-07T04:25:43.791Z,101984.45
2019-05-07T04:28:39.007Z,101982.11
2019-05-07T04:31:09.236Z,101987.68
2019-05-07T04:33:43.966Z,101985.84
2019-05-07T04:36:23.067Z,101980.74
2019-05-07T04:38:53.514Z,101979.45
2019-05-07T04:41:23.808Z,101981.88
2019-05-07T04:43:54.348Z,101981.05
2019-05-07T04:46:24.784Z,101986.23
2019-05-07T04:48:55.148Z,101988.47
2019-05-07T04:51:33.568Z,101985.05
2019-05-07T04:54:06.453Z,101990.31
2019-05-07T04:56:36.835Z,101990.77
2019-05-07T04:59:06.959Z,101989.99
2019-05-07T05:01:43.640Z,101990.11
2019-05-07T05:04:25.424Z,101984.50
2019-05-07T05:06:45.888Z,101987.38
2019-05-07T05:09:16.126Z,101995.31
2019-05-07T05:11:46.497Z,101992.48
2019-05-07T05:14:16.813Z,101993.00
2019-05-07T05:16:47.070Z,101993.56
2019-05-07T05:19:17.320Z,101988.54
2019-05-07T05:22:02.017Z,101990.38
2019-05-07T05:24:39.478Z,101981.37
2019-05-07T05:27:12.081Z,101992.78
2019-05-07T05:29:42.980Z,101990.79
2019-05-07T05:32:13.346Z,101994.02
2019-05-07T05:34:43.626Z,101999.38
2019-05-07T05:37:13.800Z,101998.74
2019-05-07T05:39:44.148Z,101990.03
2019-05-07T05:42:33.062Z,101980.96
2019-05-07T05:45:03.430Z,101992.27
2019-05-07T05:47:33.642Z,101990.67
2019-05-07T05:50:05.417Z,101979.52
2019-05-07T05:52:42.524Z,101980.58
2019-05-07T05:55:15.593Z,101981.17
2019-05-07T05:58:12.358Z,101980.04
2019-05-07T06:01:02.571Z,101983.29
2019-05-07T06:03:44.558Z,101986.91
2019-05-07T06:06:24.029Z,101988.78
2019-05-07T06:09:01.939Z,101984.83
2019-05-07T06:11:42.996Z,101986.84
2019-05-07T06:14:33.033Z,101981.55
2019-05-07T06:17:19.309Z,101982.45
2019-05-07T06:20:12.216Z,101975.08
2019-05-07T06:23:01.911Z,101975.53
2019-05-07T06:25:33.473Z,101975.13
2019-05-07T06:28:03.516Z,101976.13
2019-05-07T06:30:33.873Z,101970.08
2019-05-07T06:33:04.074Z,101974.95
2019-05-07T06:35:34.289Z,101974.59
2019-05-07T06:38:06.363Z,101981.16
2019-05-07T06:40:43.846Z,101978.99
2019-05-07T06:43:32.548Z,101985.89
2019-05-07T06:46:03.315Z,101983.04
2019-05-07T06:48:41.944Z,101984.22
2019-05-07T06:51:05.380Z,101985.39
2019-05-07T06:53:35.670Z,101984.31
2019-05-07T06:56:07.047Z,101981.55
2019-05-07T06:59:02.341Z,101984.40
2019-05-07T07:01:53.267Z,101985.65
2019-05-07T07:04:29.563Z,101986.81
2019-05-07T07:07:23.009Z,101984.02
2019-05-07T07:09:58.763Z,101981.66
2019-05-07T07:12:30.188Z,101977.89
2019-05-07T07:15:02.571Z,101976.86
2019-05-07T07:17:32.764Z,101984.48
2019-05-07T07:20:03.055Z,101980.70
2019-05-07T07:22:33.332Z,101976.39
2019-05-07T07:25:06.489Z,101980.02
2019-05-07T07:27:35.523Z,101976.37
2019-05-07T07:30:44.494Z,101975.78
2019-05-07T07:33:15.791Z,101979.98
2019-05-07T07:35:46.010Z,101978.06
2019-05-07T07:38:34.781Z,101969.69
2019-05-07T07:41:16.452Z,101963.01
2019-05-07T07:43:46.606Z,101968.23
2019-05-07T07:46:16.810Z,101965.35
2019-05-07T07:48:47.128Z,101958.89
2019-05-07T07:51:17.370Z,101961.25
2019-05-07T07:53:47.569Z,101964.86
2019-05-07T07:56:48.894Z,101956.33
2019-05-07T07:59:22.207Z,101958.87
2019-05-07T08:01:57.663Z,101959.29
2019-05-07T08:04:27.844Z,101958.15
2019-05-07T08:07:03.987Z,101955.70
2019-05-07T08:09:36.745Z,101950.70
2019-05-07T08:12:07.058Z,101947.30
2019-05-07T08:14:37.431Z,101949.89
2019-05-07T08:17:08.644Z,101943.72
2019-05-07T08:19:38.854Z,101946.36
2019-05-07T08:22:09.097Z,101945.88
2019-05-07T08:24:48.422Z,101938.41
2019-05-07T08:27:18.986Z,101938.03
2019-05-07T08:29:49.208Z,101930.24
2019-05-07T08:32:38.341Z,101932.67
2019-05-07T08:35:16.591Z,101924.87
2019-05-07T08:37:46.817Z,101923.55
2019-05-07T08:40:16.945Z,101917.36
2019-05-07T08:42:47.205Z,101922.14
2019-05-07T08:45:43.196Z,101917.34
2019-05-07T08:48:18.714Z,101927.44
2019-05-07T08:50:49.013Z,101920.77
2019-05-07T08:53:19.182Z,101915.55
2019-05-07T08:55:49.416Z,101906.47
2019-05-07T08:58:19.619Z,101914.80
2019-05-07T09:00:49.749Z,101919.52
2019-05-07T09:03:38.807Z,101914.17
2019-05-07T09:06:09.050Z,101913.41
2019-05-07T09:08:39.290Z,101910.45
2019-05-07T09:11:09.584Z,101906.09
2019-05-07T09:13:41.986Z,101905.21
2019-05-07T09:16:12.891Z,101906.52
2019-05-07T09:18:43.334Z,101903.02
2019-05-07T09:21:13.469Z,101899.96
2019-05-07T09:23:43.625Z,101897.72
2019-05-07T09:26:15.490Z,101895.11
2019-05-07T09:29:13.687Z,101895.93
2019-05-07T09:32:03.038Z,101898.52
2019-05-07T09:34:36.775Z,101899.33
2019-05-07T09:37:09.240Z,101889.20
2019-05-07T09:39:39.384Z,101891.81
2019-05-07T09:42:09.595Z,101891.81
2019-05-07T09:44:39.670Z,101888.80
2019-05-07T09:47:09.927Z,101874.41
2019-05-07T09:49:41.911Z,101884.28
2019-05-07T09:52:12.344Z,101878.61
2019-05-07T09:54:42.938Z,101874.66
2019-05-07T09:57:27.330Z,101876.44
2019-05-07T09:59:45.307Z,101872.02
2019-05-07T10:02:15.534Z,101875.98
2019-05-07T10:04:45.776Z,101869.80
2019-05-07T10:07:16.041Z,101865.89
2019-05-07T10:09:46.141Z,101873.37
2019-05-07T10:12:28.994Z,101864.55
2019-05-07T10:14:59.324Z,101868.97
2019-05-07T10:17:52.877Z,101870.25
2019-05-07T10:20:24.709Z,101870.61
2019-05-07T10:22:56.547Z,101863.91
2019-05-07T10:25:29.669Z,101866.91
2019-05-07T10:28:01.918Z,101871.23
2019-05-07T10:30:32.241Z,101859.80
2019-05-07T10:33:02.535Z,101861.59
2019-05-07T10:35:33.703Z,101863.80
2019-05-07T10:38:04.224Z,101868.17
2019-05-07T10:40:34.480Z,101857.57
2019-05-07T10:43:05.044Z,101861.55
2019-05-07T10:45:58.226Z,101854.61
2019-05-07T10:48:40.594Z,101856.12
2019-05-07T10:51:10.913Z,101852.66
2019-05-07T10:53:42.430Z,101846.06
2019-05-07T10:56:12.941Z,101835.95
2019-05-07T10:58:43.199Z,101837.23
2019-05-07T11:01:16.213Z,101837.63
2019-05-07T11:03:46.446Z,101837.99
2019-05-07T11:06:16.714Z,101836.72
2019-05-07T11:08:46.945Z,101830.58
2019-05-07T11:11:17.245Z,101832.73
2019-05-07T11:13:47.484Z,101832.27
2019-05-07T11:16:19.452Z,101824.83
2019-05-07T11:18:51.770Z,101828.86
2019-05-07T11:21:33.277Z,101824.05
2019-05-07T11:24:03.589Z,101831.10
2019-05-07T11:26:34.050Z,101820.56
2019-05-07T11:29:04.354Z,101819.23
2019-05-07T11:31:34.458Z,101818.77
2019-05-07T11:34:04.815Z,101814.34
2019-05-07T11:36:35.064Z,101819.55
2019-05-07T11:39:06.524Z,101818.58
2019-05-07T11:41:59.430Z,101813.03
2019-05-07T11:44:32.017Z,101801.86
2019-05-07T11:47:20.020Z,101805.72
2019-05-07T11:50:07.930Z,101799.42
2019-05-07T11:52:42.538Z,101792.30
2019-05-07T11:55:13.055Z,101790.66
2019-05-07T11:57:44.521Z,101794.22
2019-05-07T12:00:28.803Z,101784.77
2019-05-07T12:02:59.548Z,101784.63
2019-05-07T12:05:29.819Z,101786.77
2019-05-07T12:08:02.190Z,101788.55
2019-05-07T12:10:32.852Z,101779.73
2019-05-07T12:13:03.349Z,101782.02
2019-05-07T12:15:33.785Z,101778.61
2019-05-07T12:18:04.135Z,101775.63
2019-05-07T12:20:34.681Z,101778.38
2019-05-07T12:23:05.017Z,101766.91
2019-05-07T12:25:35.321Z,101775.27
2019-05-07T12:28:06.902Z,101762.61
2019-05-07T12:30:54.785Z,101771.12
2019-05-07T12:33:43.867Z,101770.84
2019-05-07T12:36:15.182Z,101777.12
2019-05-07T12:38:45.400Z,101767.56
2019-05-07T12:41:41.876Z,101768.41
2019-05-07T12:44:13.112Z,101777.34
2019-05-07T12:46:43.524Z,101770.34
2019-05-07T12:49:13.838Z,101765.50
2019-05-07T12:51:52.888Z,101761.94
2019-05-07T12:54:37.940Z,101758.80
2019-05-07T12:57:08.303Z,101756.35
2019-05-07T12:59:38.581Z,101746.06
2019-05-07T13:02:38.044Z,101743.71
2019-05-07T13:05:03.043Z,101736.13
2019-05-07T13:07:49.456Z,101733.55
2019-05-07T13:10:21.799Z,101732.16
2019-05-07T13:12:52.632Z,101728.27
2019-05-07T13:15:27.610Z,101731.42
2019-05-07T13:17:55.104Z,101730.80
2019-05-07T13:20:25.587Z,101725.81
2019-05-07T13:22:55.855Z,101721.98
2019-05-07T13:25:28.139Z,101719.83
2019-05-07T13:27:58.089Z,101720.66
2019-05-07T13:30:28.448Z,101711.31
2019-05-07T13:33:02.012Z,101712.66
2019-05-07T13:35:32.721Z,101704.48
2019-05-07T13:38:23.452Z,101697.29
2019-05-07T13:41:12.749Z,101697.55
2019-05-07T13:44:17.259Z,101691.11
2019-05-07T13:46:49.518Z,101686.71
2019-05-07T13:49:21.895Z,101676.89
2019-05-07T13:52:03.285Z,101674.98
2019-05-07T13:54:24.153Z,101676.81
2019-05-07T13:56:54.323Z,101673.44
2019-05-07T13:59:24.608Z,101659.93
2019-05-07T14:02:04.514Z,101660.50
2019-05-07T14:04:34.020Z,101657.04
2019-05-07T14:07:04.433Z,101651.25
2019-05-07T14:09:34.770Z,101661.84
2019-05-07T14:12:05.188Z,101649.46
2019-05-07T14:14:35.560Z,101642.44
2019-05-07T14:17:06.793Z,101638.20
2019-05-07T14:19:36.961Z,101637.82
2019-05-07T14:22:15.322Z,101635.30
2019-05-07T14:24:39.150Z,101627.02
2019-05-07T14:27:09.407Z,101626.95
2019-05-07T14:29:39.729Z,101619.92
2019-05-07T14:32:28.827Z,101617.80
2019-05-07T14:35:32.741Z,101621.63
2019-05-07T14:38:13.701Z,101617.03
2019-05-07T14:40:42.691Z,101611.66
2019-05-07T14:43:19.107Z,101609.58
2019-05-07T14:45:49.502Z,101596.40
2019-05-07T14:48:19.756Z,101598.47
2019-05-07T14:50:50.022Z,101598.55
2019-05-07T14:53:22.381Z,101588.34
2019-05-07T14:55:52.555Z,101583.66
2019-05-07T14:58:22.825Z,101582.42
2019-05-07T15:00:53.133Z,101580.08
2019-05-07T15:03:23.417Z,101575.12
2019-05-07T15:05:53.713Z,101575.17
2019-05-07T15:08:23.907Z,101578.80
2019-05-07T15:10:54.222Z,101574.23
2019-05-07T15:13:24.598Z,101569.00
2019-05-07T15:15:54.853Z,101574.00
2019-05-07T15:18:47.211Z,101571.77
2019-05-07T15:21:17.817Z,101569.44
2019-05-07T15:23:48.320Z,101564.56
2019-05-07T15:26:18.723Z,101567.47
2019-05-07T15:28:52.939Z,101566.23
2019-05-07T15:31:42.402Z,101558.70
2019-05-07T15:34:12.764Z,101557.55
2019-05-07T15:36:43.042Z,101557.53
2019-05-07T15:39:13.477Z,101556.22
2019-05-07T15:41:43.778Z,101582.38
2019-05-07T15:44:14.084Z,101617.03
2019-05-07T15:46:44.311Z,101603.31
2019-05-07T15:49:14.576Z,101615.11
2019-05-07T15:51:44.883Z,101625.36
2019-05-07T15:54:15.228Z,101613.03
2019-05-07T15:56:45.585Z,101612.08
2019-05-07T15:59:22.913Z,101629.91
2019-05-07T16:03:54.974Z,101603.16
2019-05-07T16:06:24.947Z,101611.91
2019-05-07T16:08:59.064Z,101606.16
2019-05-07T16:11:32.271Z,101604.48
2019-05-07T16:14:14.952Z,101602.84
2019-05-07T16:16:47.234Z,101600.56
2019-05-07T16:19:28.656Z,101602.28
2019-05-07T16:22:03.852Z,101606.30
2019-05-07T16:24:34.557Z,101607.80
2019-05-07T16:27:05.284Z,101602.17
2019-05-07T16:29:38.316Z,101598.33
2019-05-07T16:32:11.105Z,101598.30
2019-05-07T16:34:45.659Z,101600.48
2019-05-07T16:37:18.800Z,101594.36
2019-05-07T16:39:52.740Z,101590.00
2019-05-07T16:42:22.981Z,101598.73
2019-05-07T16:44:53.214Z,101596.16
2019-05-07T16:47:23.507Z,101587.13
2019-05-07T16:49:53.848Z,101584.99
2019-05-07T16:52:24.127Z,101582.78
2019-05-07T16:54:54.430Z,101583.25
2019-05-07T16:57:36.894Z,101575.32
2019-05-07T17:00:12.557Z,101581.39
2019-05-07T17:02:45.707Z,101580.38
2019-05-07T17:05:16.398Z,101576.39
2019-05-07T17:08:05.580Z,101574.97
2019-05-07T17:10:36.000Z,101568.75
2019-05-07T17:13:09.790Z,101563.52
2019-05-07T17:15:55.611Z,101561.88
2019-05-07T17:18:27.299Z,101555.05
2019-05-07T17:20:58.829Z,101542.94
2019-05-07T17:23:42.875Z,101541.25
2019-05-07T17:26:01.297Z,101543.95
2019-05-07T17:28:32.045Z,101538.74
2019-05-07T17:31:03.089Z,101536.22
2019-05-07T17:33:33.462Z,101531.92
2019-05-07T17:36:03.800Z,101525.44
2019-05-07T17:38:34.149Z,101524.97
2019-05-07T17:41:13.533Z,101528.02
2019-05-07T17:43:36.361Z,101528.37
2019-05-07T17:46:06.812Z,101526.66
2019-05-07T17:48:36.887Z,101524.98
2019-05-07T17:51:25.968Z,101521.52
2019-05-07T17:54:00.169Z,101517.21
2019-05-07T17:56:31.875Z,101508.59
2019-05-07T17:59:02.855Z,101509.55
2019-05-07T18:02:01.945Z,101506.95
2019-05-07T18:04:47.467Z,101502.61
2019-05-07T18:07:07.803Z,101497.80
2019-05-07T18:09:38.298Z,101494.34
2019-05-07T18:12:08.820Z,101495.66
2019-05-07T18:14:39.486Z,101489.55
2019-05-07T18:17:27.288Z,101482.23
2019-05-07T18:19:57.754Z,101486.01
2019-05-07T18:22:28.458Z,101476.50
2019-05-07T18:24:59.090Z,101480.44
2019-05-07T18:27:29.616Z,101485.67
2019-05-07T18:30:03.613Z,101480.34
2019-05-07T18:32:42.714Z,101475.54
2019-05-07T18:37:52.459Z,101456.73
2019-05-07T18:40:23.880Z,101467.17
2019-05-07T18:42:54.309Z,101463.13
2019-05-07T18:45:24.866Z,101469.17
2019-05-07T18:47:55.384Z,101467.73
2019-05-07T18:50:28.610Z,101468.91
2019-05-07T18:52:59.084Z,101459.61
2019-05-07T18:55:29.862Z,101461.23
2019-05-07T19:00:42.304Z,101457.63
2019-05-07T19:03:12.591Z,101455.77
2019-05-07T19:05:43.086Z,101455.64
2019-05-07T19:08:13.740Z,101456.84
2019-05-07T19:10:44.254Z,101457.19
2019-05-07T19:13:14.798Z,101447.30
2019-05-07T19:15:45.431Z,101447.99
2019-05-07T19:18:15.932Z,101451.34
2019-05-07T19:20:47.553Z,101452.10
2019-05-07T19:23:18.421Z,101447.11
2019-05-07T19:25:48.967Z,101453.99
2019-05-07T19:28:19.616Z,101456.94
2019-05-07T19:30:52.537Z,101464.27
2019-05-07T19:33:26.843Z,101464.63
2019-05-07T19:35:54.479Z,101465.84
2019-05-07T19:38:25.051Z,101466.22
2019-05-07T19:40:55.477Z,101467.03
2019-05-07T19:43:25.943Z,101471.30
2019-05-07T19:45:56.452Z,101474.31
2019-05-07T19:48:27.011Z,101462.50
2019-05-07T19:50:57.507Z,101469.48
2019-05-07T19:53:28.179Z,101473.84
2019-05-07T19:56:12.565Z,101474.75
2019-05-07T19:58:43.064Z,101468.20
2019-05-07T20:01:15.183Z,101472.54
2019-05-07T20:03:45.759Z,101465.55
2019-05-07T20:06:16.223Z,101463.34
2019-05-07T20:08:46.779Z,101465.09
2019-05-07T20:11:45.447Z,101464.19
2019-05-07T20:14:15.980Z,101458.48
2019-05-07T20:16:46.459Z,101465.86
2019-05-07T20:19:16.936Z,101458.81
2019-05-07T20:21:47.404Z,101456.59
2019-05-07T20:24:17.887Z,101449.98
2019-05-07T20:27:03.170Z,101456.09
2019-05-07T20:29:33.730Z,101450.39
2019-05-07T20:32:04.353Z,101444.19
2019-05-07T20:37:18.703Z,101435.19
2019-05-07T20:39:49.130Z,101438.51
2019-05-07T20:42:19.535Z,101430.55
2019-05-07T20:44:51.931Z,101426.63
2019-05-07T20:47:23.520Z,101422.70
2019-05-07T20:49:58.326Z,101417.84
2019-05-07T20:52:32.635Z,101422.16
2019-05-07T20:55:26.590Z,101429.55
2019-05-07T20:57:50.879Z,101418.14
2019-05-07T21:00:25.061Z,101419.81
2019-05-07T21:03:12.861Z,101419.30
2019-05-07T21:05:43.368Z,101417.05
2019-05-07T21:08:13.857Z,101409.97
2019-05-07T21:10:44.636Z,101409.42
2019-05-07T21:13:27.463Z,101410.72
2019-05-07T21:15:47.323Z,101400.19
2019-05-07T21:18:17.859Z,101399.68
2019-05-07T21:20:48.924Z,101400.04
2019-05-07T21:23:19.319Z,101387.28
2019-05-07T21:26:13.081Z,101388.12
2019-05-07T21:28:43.521Z,101388.52
2019-05-07T21:31:14.054Z,101384.12
2019-05-07T21:33:44.475Z,101383.17
2019-05-07T21:36:18.003Z,101377.47
2019-05-07T21:38:48.509Z,101375.69
2019-05-07T21:41:18.910Z,101378.30
2019-05-07T21:43:49.484Z,101373.91
2019-05-07T21:46:22.002Z,101373.91
2019-05-07T21:48:53.732Z,101374.70
2019-05-07T21:51:24.522Z,101371.61
2019-05-07T21:54:12.373Z,101368.99
2019-05-07T21:56:54.587Z,101363.69
2019-05-07T21:59:26.348Z,101365.31
2019-05-07T22:02:02.074Z,101361.23
2019-05-07T22:04:31.965Z,101355.87
2019-05-07T22:07:02.927Z,101360.14
2019-05-07T22:09:33.292Z,101355.66
2019-05-07T22:12:03.889Z,101351.22
2019-05-07T22:14:34.135Z,101361.58
2019-05-07T22:17:05.381Z,101349.70
2019-05-07T22:19:35.679Z,101353.09
2019-05-07T22:22:06.942Z,101347.27
2019-05-07T22:24:37.135Z,101342.34
2019-05-07T22:27:07.277Z,101333.89
2019-05-07T22:29:37.599Z,101331.58
2019-05-07T22:32:29.735Z,101325.35
2019-05-07T22:35:22.666Z,101330.82
2019-05-07T22:37:54.019Z,101321.97
2019-05-07T22:40:24.198Z,101322.22
2019-05-07T22:42:54.341Z,101323.84
2019-05-07T22:45:24.534Z,101314.63
2019-05-07T22:47:54.850Z,101310.18
2019-05-07T22:50:25.068Z,101306.64
2019-05-07T22:52:55.429Z,101302.59
2019-05-07T22:55:25.627Z,101298.14
2019-05-07T22:58:01.319Z,101291.91
2019-05-07T23:00:37.717Z,101297.50
2019-05-07T23:03:07.903Z,101287.02
2019-05-07T23:05:38.096Z,101287.74
2019-05-07T23:08:08.343Z,101270.27
2019-05-07T23:10:38.518Z,101273.67
2019-05-07T23:13:08.644Z,101266.63
2019-05-07T23:15:38.888Z,101268.70
2019-05-07T23:18:09.147Z,101256.91
2019-05-07T23:20:39.221Z,101261.16
2019-05-07T23:23:09.392Z,101262.83
2019-05-07T23:25:40.063Z,101253.17
2019-05-07T23:28:12.432Z,101257.41
2019-05-07T23:30:44.240Z,101254.27
2019-05-07T23:33:14.091Z,101253.72
2019-05-07T23:35:44.438Z,101245.36
2019-05-07T23:38:15.975Z,101246.98
2019-05-07T23:41:05.116Z,101242.16
2019-05-07T23:43:35.292Z,101245.52
2019-05-07T23:46:06.598Z,101244.11
2019-05-07T23:48:36.799Z,101244.04
2019-05-07T23:51:06.876Z,101240.91
2019-05-07T23:53:37.087Z,101240.89
2019-05-07T23:56:07.270Z,101232.11
2019-05-07T23:58:37.431Z,101231.62
